DTTADAAG

Guest
Details From DTTA - CARTHAGE
To DAAG - Alger Houari Boumediene
Flight Number -
Tags generated
Created
Modified
Stats Distance 338 nm / 626 km
Max Altitude 34,000 ft / 10,363 m
Waypoints 6
Social Downloads 2
Likes 0
Share VATSIM

Download

Looking for another format? Having issues loading an existing format? Contact us
Advertisement - Login to hide

Notes

Basic altitude profile: - Ascent Rate: 2500ft/min - Ascent Speed: 250kts - Cruise Altitude: 35000ft - Cruise Speed: 420kts - Descent Rate: 1500ft/min - Descent Speed: 250kts Options: - Use NATs: yes - Use PACOTS: yes - Use low airways: yes - Use high airways: yes

Route

DTTA MORJA UA411 BJA DAAG

ID Type Via Altitude Latitude Longitude Leg Dist Tot Dist Heading (true) Name
O DTTA APT - 0 ft / 0 m 36.85127˚ 10.23003˚ - 0 nm - CARTHAGE
MORJA FIX - 26,100 ft / 7,955 m 36.83444˚ 8.65000˚ 75 nm 75 nm 270° / 269° -
ANB VOR UA411 (AWY-HI) 34,000 ft / 10,363 m 36.81667˚ 7.80000˚ 40 nm 116 nm 269° / 268° ANNABA VOR-DME
JIL VOR UA411 (AWY-HI) 26,500 ft / 8,077 m 36.77667˚ 5.87722˚ 92 nm 209 nm 269° / 268° JIJEL VOR-DME
BJA NDB UA411 (AWY-HI) 24,500 ft / 7,468 m 36.70667˚ 5.02472˚ 41 nm 250 nm 264° / 264° BEJAIA NDB
O DAAG APT - 0 ft / 0 m 36.69752˚ 3.21308˚ 87 nm 337 nm 270° / 269° Alger Houari Boumediene

Altitude Profile

Advertisement - Login to hide

Weather


0- 5 10 15 20 25 30 35+ Temperature / ° C

Clouds and Precipitation
Forecast for 2017-12-12 06:00 UTC. Updated 2 hours ago

Ground ~20,000 ft ~40,000 ft Winds

DTTA

Details ICAO DTTA (TUN)
Name CARTHAGE
Region Tunisia
Timezone Africa/Tunis (UTC+1.0)
Stats Elevation 22 ft / 7 m (AMSL)
Location 36.851267° 10.230027°
Runways 2
Magnetic Variation 2.402° E

METAR

DTTA 120230Z 14009KT 9999 FEW026 14/03 Q1012 NOSIG

Decode

TAF

TAF DTTA 120009Z 1200/1224 17010KT 9999 FEW026= TAF DTMB 120009Z 1200/1224 16012KT 8000 NSC

Decode

Departure Runways

ID Width Length Bearing (true) Bearing (mag) Surface Threshold Offset Overrun Length
01 148 ft / 45 m 10,502 ft / 3,201 m 12.29° 9.89° Asphalt 0 ft / 0 m 197 ft / 60 m
11 148 ft / 45 m 9,345 ft / 2,848 m 112.55° 110.15° Asphalt 0 ft / 0 m 643 ft / 196 m
19 148 ft / 45 m 10,502 ft / 3,201 m 192.29° 189.89° Asphalt 0 ft / 0 m 197 ft / 60 m
29 148 ft / 45 m 9,345 ft / 2,848 m 292.57° 290.17° Asphalt 657 ft / 200 m 197 ft / 60 m

DAAG

Details ICAO DAAG (ALG)
Name Alger Houari Boumediene
Region Algeria
Timezone Africa/Algiers (UTC+1.0)
Stats Elevation 82 ft / 25 m (AMSL)
Location 36.697521° 3.213079°
Runways 2
Magnetic Variation 1.057° E

METAR

DAAG 120230Z 24003KT 190V260 9999 -RA FEW026 FEW030CB BKN090 12/09 Q1010

Decode

TAF

TAF DAAG 112300Z 1200/1224 28012KT 9999 FEW026 BKN083 PROB40 TEMPO 1200/1209 FEW026CB PROB40 TEMPO 1203/1209 28015G25KT 5000 -TSRA FEW023CB

Decode

Destination Runways

ID Width Length Bearing (true) Bearing (mag) Surface Threshold Offset Overrun Length
05 197 ft / 60 m 11,459 ft / 3,493 m 52.87° 51.81° Asphalt 0 ft / 0 m 0 ft / 0 m
09 148 ft / 45 m 11,442 ft / 3,487 m 91.75° 90.69° Asphalt 0 ft / 0 m 1,017 ft / 310 m
23 197 ft / 60 m 11,459 ft / 3,493 m 232.89° 231.83° Asphalt 0 ft / 0 m 0 ft / 0 m
27 148 ft / 45 m 11,442 ft / 3,487 m 271.78° 270.72° Asphalt 0 ft / 0 m 0 ft / 0 m

Approach Navaids

Runway Type Ident Frequency Range Bearing (true) Bearing (mag) Slope Elevation
09 Localiser HB 108.50 MHz 18 nm / 33 km 91.73° 90.67° - 82 ft / 25 m (AMSL)
09 Glidescope HB 108.50 MHz 10 nm / 19 km 91.77° 90.71° 3.00° 82 ft / 25 m (AMSL)
23 Localiser AG 110.30 MHz 18 nm / 33 km 232.74° 231.69° - 82 ft / 25 m (AMSL)
23 Glidescope AG 110.30 MHz 10 nm / 19 km 232.88° 231.83° 3.00° 82 ft / 25 m (AMSL)

Popular Alternatives